sensor_id;sensor_type;location;lat;lon;timestamp;P1;durP1;ratioP1;P2;durP2;ratioP2
19800;SDS011;10060;48.274;12.214;2023-04-06T00:02:43;14.23;;;9.77;;
19800;SDS011;10060;48.274;12.214;2023-04-06T00:05:46;15.53;;;9.77;;
19800;SDS011;10060;48.274;12.214;2023-04-06T00:08:50;14.60;;;9.70;;
19800;SDS011;10060;48.274;12.214;2023-04-06T00:11:54;11.77;;;9.00;;
19800;SDS011;10060;48.274;12.214;2023-04-06T00:14:57;11.60;;;8.77;;
19800;SDS011;10060;48.274;12.214;2023-04-06T00:18:01;11.90;;;9.43;;
19800;SDS011;10060;48.274;12.214;2023-04-06T00:21:03;13.17;;;8.97;;
19800;SDS011;10060;48.274;12.214;2023-04-06T00:24:06;14.00;;;9.47;;
19800;SDS011;10060;48.274;12.214;2023-04-06T00:27:09;13.10;;;9.83;;
19800;SDS011;10060;48.274;12.214;2023-04-06T00:30:12;13.27;;;10.33;;
19800;SDS011;10060;48.274;12.214;2023-04-06T00:33:14;13.97;;;9.60;;
19800;SDS011;10060;48.274;12.214;2023-04-06T00:36:16;12.10;;;8.93;;
19800;SDS011;10060;48.274;12.214;2023-04-06T00:39:18;11.17;;;9.10;;
19800;SDS011;10060;48.274;12.214;2023-04-06T00:42:22;11.00;;;7.80;;
19800;SDS011;10060;48.274;12.214;2023-04-06T00:45:26;12.90;;;9.17;;
19800;SDS011;10060;48.274;12.214;2023-04-06T00:48:28;9.93;;;8.03;;
19800;SDS011;10060;48.274;12.214;2023-04-06T00:51:31;10.63;;;8.43;;
19800;SDS011;10060;48.274;12.214;2023-04-06T00:54:33;11.53;;;7.90;;
19800;SDS011;10060;48.274;12.214;2023-04-06T00:57:37;10.67;;;8.40;;
19800;SDS011;10060;48.274;12.214;2023-04-06T01:00:39;13.20;;;8.90;;
19800;SDS011;10060;48.274;12.214;2023-04-06T01:03:41;13.40;;;9.40;;
19800;SDS011;10060;48.274;12.214;2023-04-06T01:06:44;14.07;;;9.50;;
19800;SDS011;10060;48.274;12.214;2023-04-06T01:09:48;15.47;;;9.60;;
19800;SDS011;10060;48.274;12.214;2023-04-06T01:12:52;12.87;;;9.20;;
19800;SDS011;10060;48.274;12.214;2023-04-06T01:15:54;13.43;;;9.40;;
19800;SDS011;10060;48.274;12.214;2023-04-06T01:18:56;16.43;;;9.50;;
19800;SDS011;10060;48.274;12.214;2023-04-06T01:21:58;13.77;;;9.57;;
19800;SDS011;10060;48.274;12.214;2023-04-06T01:25:02;14.37;;;9.73;;
19800;SDS011;10060;48.274;12.214;2023-04-06T01:28:04;14.87;;;10.40;;
19800;SDS011;10060;48.274;12.214;2023-04-06T01:31:07;13.50;;;9.83;;
19800;SDS011;10060;48.274;12.214;2023-04-06T01:34:09;13.37;;;10.90;;
19800;SDS011;10060;48.274;12.214;2023-04-06T01:37:11;15.37;;;11.20;;
19800;SDS011;10060;48.274;12.214;2023-04-06T01:40:15;20.43;;;13.67;;
19800;SDS011;10060;48.274;12.214;2023-04-06T01:43:17;14.67;;;10.03;;
19800;SDS011;10060;48.274;12.214;2023-04-06T01:46:19;13.23;;;9.27;;
19800;SDS011;10060;48.274;12.214;2023-04-06T01:49:21;10.93;;;8.60;;
19800;SDS011;10060;48.274;12.214;2023-04-06T01:52:24;16.63;;;10.00;;
19800;SDS011;10060;48.274;12.214;2023-04-06T01:55:27;11.23;;;9.17;;
19800;SDS011;10060;48.274;12.214;2023-04-06T01:58:29;9.63;;;8.07;;
19800;SDS011;10060;48.274;12.214;2023-04-06T02:01:32;13.77;;;9.50;;
19800;SDS011;10060;48.274;12.214;2023-04-06T02:04:34;13.93;;;9.47;;
19800;SDS011;10060;48.274;12.214;2023-04-06T02:07:36;14.70;;;9.23;;
19800;SDS011;10060;48.274;12.214;2023-04-06T02:10:40;12.63;;;9.70;;
19800;SDS011;10060;48.274;12.214;2023-04-06T02:13:42;14.53;;;9.43;;
19800;SDS011;10060;48.274;12.214;2023-04-06T02:16:44;16.73;;;9.67;;
19800;SDS011;10060;48.274;12.214;2023-04-06T02:19:46;12.03;;;9.07;;
19800;SDS011;10060;48.274;12.214;2023-04-06T02:22:48;13.27;;;9.30;;
19800;SDS011;10060;48.274;12.214;2023-04-06T02:25:52;12.97;;;9.20;;
19800;SDS011;10060;48.274;12.214;2023-04-06T02:28:54;9.87;;;8.40;;
19800;SDS011;10060;48.274;12.214;2023-04-06T02:31:56;14.60;;;9.23;;
19800;SDS011;10060;48.274;12.214;2023-04-06T02:34:59;16.27;;;9.63;;
19800;SDS011;10060;48.274;12.214;2023-04-06T02:38:01;15.90;;;10.27;;
19800;SDS011;10060;48.274;12.214;2023-04-06T02:41:05;11.67;;;9.60;;
19800;SDS011;10060;48.274;12.214;2023-04-06T02:44:07;13.13;;;10.07;;
19800;SDS011;10060;48.274;12.214;2023-04-06T02:47:10;13.60;;;11.57;;
19800;SDS011;10060;48.274;12.214;2023-04-06T02:50:12;25.93;;;18.83;;
19800;SDS011;10060;48.274;12.214;2023-04-06T02:53:14;31.73;;;21.90;;
19800;SDS011;10060;48.274;12.214;2023-04-06T02:56:18;25.90;;;18.73;;
19800;SDS011;10060;48.274;12.214;2023-04-06T02:59:21;21.83;;;15.97;;
19800;SDS011;10060;48.274;12.214;2023-04-06T03:02:23;20.93;;;15.07;;
19800;SDS011;10060;48.274;12.214;2023-04-06T03:05:25;22.43;;;15.23;;
19800;SDS011;10060;48.274;12.214;2023-04-06T03:08:27;24.27;;;15.47;;
19800;SDS011;10060;48.274;12.214;2023-04-06T03:11:31;20.33;;;13.17;;
19800;SDS011;10060;48.274;12.214;2023-04-06T03:14:33;21.83;;;13.27;;
19800;SDS011;10060;48.274;12.214;2023-04-06T03:17:35;17.77;;;12.37;;
19800;SDS011;10060;48.274;12.214;2023-04-06T03:20:37;17.73;;;12.03;;
19800;SDS011;10060;48.274;12.214;2023-04-06T03:23:40;20.33;;;12.90;;
19800;SDS011;10060;48.274;12.214;2023-04-06T03:26:43;17.37;;;12.13;;
19800;SDS011;10060;48.274;12.214;2023-04-06T03:29:45;15.63;;;11.33;;
19800;SDS011;10060;48.274;12.214;2023-04-06T03:32:48;16.33;;;11.47;;
19800;SDS011;10060;48.274;12.214;2023-04-06T03:35:50;15.50;;;11.37;;
19800;SDS011;10060;48.274;12.214;2023-04-06T03:38:52;14.83;;;11.10;;
19800;SDS011;10060;48.274;12.214;2023-04-06T03:41:56;12.73;;;9.97;;
19800;SDS011;10060;48.274;12.214;2023-04-06T03:44:58;15.90;;;10.67;;
19800;SDS011;10060;48.274;12.214;2023-04-06T03:48:00;18.40;;;10.77;;
19800;SDS011;10060;48.274;12.214;2023-04-06T03:51:02;12.50;;;9.90;;
19800;SDS011;10060;48.274;12.214;2023-04-06T03:54:05;15.87;;;10.50;;
19800;SDS011;10060;48.274;12.214;2023-04-06T03:57:08;14.87;;;10.87;;
19800;SDS011;10060;48.274;12.214;2023-04-06T04:00:11;18.57;;;11.43;;
19800;SDS011;10060;48.274;12.214;2023-04-06T04:03:13;16.73;;;10.43;;
19800;SDS011;10060;48.274;12.214;2023-04-06T04:06:15;15.37;;;11.80;;
19800;SDS011;10060;48.274;12.214;2023-04-06T04:09:17;16.30;;;10.07;;
19800;SDS011;10060;48.274;12.214;2023-04-06T04:12:21;16.17;;;10.13;;
19800;SDS011;10060;48.274;12.214;2023-04-06T04:15:23;18.50;;;10.77;;
19800;SDS011;10060;48.274;12.214;2023-04-06T04:18:25;15.30;;;10.13;;
19800;SDS011;10060;48.274;12.214;2023-04-06T04:21:28;15.00;;;10.40;;
19800;SDS011;10060;48.274;12.214;2023-04-06T04:24:31;15.57;;;10.73;;
19800;SDS011;10060;48.274;12.214;2023-04-06T04:27:35;17.27;;;10.50;;
19800;SDS011;10060;48.274;12.214;2023-04-06T04:30:37;17.97;;;11.87;;
19800;SDS011;10060;48.274;12.214;2023-04-06T04:33:39;15.43;;;9.53;;
19800;SDS011;10060;48.274;12.214;2023-04-06T04:36:41;14.70;;;10.70;;
19800;SDS011;10060;48.274;12.214;2023-04-06T04:39:44;23.00;;;12.67;;
19800;SDS011;10060;48.274;12.214;2023-04-06T04:42:48;23.37;;;13.40;;
19800;SDS011;10060;48.274;12.214;2023-04-06T04:45:51;23.87;;;13.60;;
19800;SDS011;10060;48.274;12.214;2023-04-06T04:48:53;23.93;;;16.70;;
19800;SDS011;10060;48.274;12.214;2023-04-06T04:51:55;21.13;;;12.93;;
19800;SDS011;10060;48.274;12.214;2023-04-06T04:54:57;18.17;;;12.50;;
19800;SDS011;10060;48.274;12.214;2023-04-06T04:58:01;18.30;;;12.17;;
19800;SDS011;10060;48.274;12.214;2023-04-06T05:01:03;15.90;;;12.20;;
19800;SDS011;10060;48.274;12.214;2023-04-06T05:04:05;18.27;;;12.67;;
19800;SDS011;10060;48.274;12.214;2023-04-06T05:07:08;20.37;;;13.47;;
19800;SDS011;10060;48.274;12.214;2023-04-06T05:10:10;20.37;;;12.37;;
19800;SDS011;10060;48.274;12.214;2023-04-06T05:13:14;15.30;;;11.63;;
19800;SDS011;10060;48.274;12.214;2023-04-06T05:16:16;16.90;;;11.77;;
19800;SDS011;10060;48.274;12.214;2023-04-06T05:19:18;16.17;;;11.27;;
19800;SDS011;10060;48.274;12.214;2023-04-06T05:22:21;12.50;;;9.67;;
19800;SDS011;10060;48.274;12.214;2023-04-06T05:25:23;13.60;;;10.40;;
19800;SDS011;10060;48.274;12.214;2023-04-06T05:28:27;15.53;;;11.33;;
19800;SDS011;10060;48.274;12.214;2023-04-06T05:31:29;16.40;;;10.60;;
19800;SDS011;10060;48.274;12.214;2023-04-06T05:34:31;18.23;;;12.30;;
19800;SDS011;10060;48.274;12.214;2023-04-06T05:37:34;14.47;;;10.00;;
19800;SDS011;10060;48.274;12.214;2023-04-06T05:40:36;17.00;;;10.93;;
19800;SDS011;10060;48.274;12.214;2023-04-06T05:43:42;14.73;;;10.77;;
19800;SDS011;10060;48.274;12.214;2023-04-06T05:46:44;13.50;;;9.73;;
19800;SDS011;10060;48.274;12.214;2023-04-06T05:49:46;13.20;;;9.87;;
19800;SDS011;10060;48.274;12.214;2023-04-06T05:52:48;14.63;;;10.37;;
19800;SDS011;10060;48.274;12.214;2023-04-06T05:55:50;15.40;;;10.60;;
19800;SDS011;10060;48.274;12.214;2023-04-06T05:58:54;15.07;;;9.43;;
19800;SDS011;10060;48.274;12.214;2023-04-06T06:01:56;15.00;;;9.90;;
19800;SDS011;10060;48.274;12.214;2023-04-06T06:04:58;14.47;;;10.13;;
19800;SDS011;10060;48.274;12.214;2023-04-06T06:08:01;13.97;;;10.77;;
19800;SDS011;10060;48.274;12.214;2023-04-06T06:11:03;14.17;;;10.47;;
19800;SDS011;10060;48.274;12.214;2023-04-06T06:14:06;14.43;;;10.20;;
19800;SDS011;10060;48.274;12.214;2023-04-06T06:17:09;13.60;;;10.30;;
19800;SDS011;10060;48.274;12.214;2023-04-06T06:20:11;12.90;;;9.83;;
19800;SDS011;10060;48.274;12.214;2023-04-06T06:23:14;14.87;;;10.30;;
19800;SDS011;10060;48.274;12.214;2023-04-06T06:26:16;10.97;;;8.83;;
19800;SDS011;10060;48.274;12.214;2023-04-06T06:29:19;15.73;;;10.43;;
19800;SDS011;10060;48.274;12.214;2023-04-06T06:32:22;13.37;;;10.07;;
19800;SDS011;10060;48.274;12.214;2023-04-06T06:35:24;14.20;;;9.70;;
19800;SDS011;10060;48.274;12.214;2023-04-06T06:38:26;14.43;;;9.53;;
19800;SDS011;10060;48.274;12.214;2023-04-06T06:41:29;12.47;;;9.60;;
19800;SDS011;10060;48.274;12.214;2023-04-06T06:44:32;16.93;;;9.70;;
19800;SDS011;10060;48.274;12.214;2023-04-06T06:47:35;14.67;;;10.13;;
19800;SDS011;10060;48.274;12.214;2023-04-06T06:50:37;15.77;;;10.57;;
19800;SDS011;10060;48.274;12.214;2023-04-06T06:53:39;15.13;;;10.70;;
19800;SDS011;10060;48.274;12.214;2023-04-06T06:56:41;28.20;;;11.73;;
19800;SDS011;10060;48.274;12.214;2023-04-06T06:59:45;15.37;;;10.53;;
19800;SDS011;10060;48.274;12.214;2023-04-06T07:02:47;19.87;;;10.67;;
19800;SDS011;10060;48.274;12.214;2023-04-06T07:05:50;16.50;;;11.07;;
19800;SDS011;10060;48.274;12.214;2023-04-06T07:08:54;17.07;;;10.10;;
19800;SDS011;10060;48.274;12.214;2023-04-06T07:11:56;20.07;;;11.77;;
19800;SDS011;10060;48.274;12.214;2023-04-06T07:15:00;18.60;;;11.60;;
19800;SDS011;10060;48.274;12.214;2023-04-06T07:18:02;18.93;;;11.73;;
19800;SDS011;10060;48.274;12.214;2023-04-06T07:21:04;22.80;;;12.80;;
19800;SDS011;10060;48.274;12.214;2023-04-06T07:24:07;20.07;;;12.17;;
19800;SDS011;10060;48.274;12.214;2023-04-06T07:27:09;20.17;;;13.43;;
19800;SDS011;10060;48.274;12.214;2023-04-06T07:30:13;18.97;;;12.33;;
19800;SDS011;10060;48.274;12.214;2023-04-06T07:33:15;26.10;;;13.67;;
19800;SDS011;10060;48.274;12.214;2023-04-06T07:36:18;18.63;;;11.77;;
19800;SDS011;10060;48.274;12.214;2023-04-06T07:39:20;17.23;;;12.13;;
19800;SDS011;10060;48.274;12.214;2023-04-06T07:42:22;19.13;;;12.27;;
19800;SDS011;10060;48.274;12.214;2023-04-06T07:45:26;21.10;;;12.80;;
19800;SDS011;10060;48.274;12.214;2023-04-06T07:48:28;20.87;;;11.97;;
19800;SDS011;10060;48.274;12.214;2023-04-06T07:51:30;19.47;;;13.43;;
19800;SDS011;10060;48.274;12.214;2023-04-06T07:54:32;16.87;;;11.57;;
19800;SDS011;10060;48.274;12.214;2023-04-06T07:57:35;19.00;;;12.17;;
19800;SDS011;10060;48.274;12.214;2023-04-06T08:00:38;18.43;;;11.80;;
19800;SDS011;10060;48.274;12.214;2023-04-06T08:03:40;19.03;;;11.37;;
19800;SDS011;10060;48.274;12.214;2023-04-06T08:06:43;15.87;;;11.17;;
19800;SDS011;10060;48.274;12.214;2023-04-06T08:09:45;16.80;;;11.73;;
19800;SDS011;10060;48.274;12.214;2023-04-06T08:12:47;16.57;;;11.57;;
19800;SDS011;10060;48.274;12.214;2023-04-06T08:15:51;18.47;;;11.53;;
19800;SDS011;10060;48.274;12.214;2023-04-06T08:18:53;15.73;;;11.57;;
19800;SDS011;10060;48.274;12.214;2023-04-06T08:21:55;14.43;;;11.03;;
19800;SDS011;10060;48.274;12.214;2023-04-06T08:24:58;16.43;;;11.43;;
19800;SDS011;10060;48.274;12.214;2023-04-06T08:28:00;14.43;;;10.13;;
19800;SDS011;10060;48.274;12.214;2023-04-06T08:31:06;16.10;;;10.57;;
19800;SDS011;10060;48.274;12.214;2023-04-06T08:34:09;21.30;;;11.27;;
19800;SDS011;10060;48.274;12.214;2023-04-06T08:37:11;25.30;;;14.27;;
19800;SDS011;10060;48.274;12.214;2023-04-06T08:40:13;35.30;;;19.53;;
19800;SDS011;10060;48.274;12.214;2023-04-06T08:43:16;30.17;;;15.57;;
19800;SDS011;10060;48.274;12.214;2023-04-06T08:46:20;27.17;;;13.57;;
19800;SDS011;10060;48.274;12.214;2023-04-06T08:49:22;15.10;;;9.10;;
19800;SDS011;10060;48.274;12.214;2023-04-06T08:52:25;10.70;;;7.87;;
19800;SDS011;10060;48.274;12.214;2023-04-06T08:55:28;15.17;;;8.63;;
19800;SDS011;10060;48.274;12.214;2023-04-06T08:58:32;11.07;;;7.40;;
19800;SDS011;10060;48.274;12.214;2023-04-06T09:01:37;8.60;;;6.37;;
19800;SDS011;10060;48.274;12.214;2023-04-06T09:04:41;9.07;;;6.67;;
19800;SDS011;10060;48.274;12.214;2023-04-06T09:07:43;10.20;;;7.30;;
19800;SDS011;10060;48.274;12.214;2023-04-06T09:10:46;10.53;;;7.33;;
19800;SDS011;10060;48.274;12.214;2023-04-06T09:13:50;11.23;;;6.63;;
19800;SDS011;10060;48.274;12.214;2023-04-06T09:16:54;8.47;;;6.80;;
19800;SDS011;10060;48.274;12.214;2023-04-06T09:19:56;9.37;;;6.10;;
19800;SDS011;10060;48.274;12.214;2023-04-06T09:22:59;8.73;;;6.70;;
19800;SDS011;10060;48.274;12.214;2023-04-06T09:26:05;11.93;;;6.70;;
19800;SDS011;10060;48.274;12.214;2023-04-06T09:29:08;10.83;;;7.27;;
19800;SDS011;10060;48.274;12.214;2023-04-06T09:32:12;10.00;;;6.97;;
19800;SDS011;10060;48.274;12.214;2023-04-06T09:35:16;8.20;;;6.00;;
19800;SDS011;10060;48.274;12.214;2023-04-06T09:38:19;9.47;;;7.07;;
19800;SDS011;10060;48.274;12.214;2023-04-06T09:41:22;10.90;;;6.70;;
19800;SDS011;10060;48.274;12.214;2023-04-06T09:44:25;11.23;;;6.97;;
19800;SDS011;10060;48.274;12.214;2023-04-06T09:47:28;9.93;;;6.73;;
19800;SDS011;10060;48.274;12.214;2023-04-06T09:50:32;9.07;;;7.33;;
19800;SDS011;10060;48.274;12.214;2023-04-06T09:53:35;12.37;;;7.17;;
19800;SDS011;10060;48.274;12.214;2023-04-06T09:56:41;11.43;;;7.60;;
19800;SDS011;10060;48.274;12.214;2023-04-06T09:59:48;10.80;;;6.73;;
19800;SDS011;10060;48.274;12.214;2023-04-06T10:02:56;12.07;;;7.67;;
19800;SDS011;10060;48.274;12.214;2023-04-06T10:06:01;11.43;;;7.23;;
19800;SDS011;10060;48.274;12.214;2023-04-06T10:09:06;8.37;;;6.93;;
19800;SDS011;10060;48.274;12.214;2023-04-06T10:12:09;11.10;;;6.47;;
19800;SDS011;10060;48.274;12.214;2023-04-06T10:15:11;11.13;;;7.33;;
19800;SDS011;10060;48.274;12.214;2023-04-06T10:18:15;10.17;;;7.27;;
19800;SDS011;10060;48.274;12.214;2023-04-06T10:21:20;13.43;;;8.23;;
19800;SDS011;10060;48.274;12.214;2023-04-06T10:24:23;9.90;;;7.33;;
19800;SDS011;10060;48.274;12.214;2023-04-06T10:27:29;11.27;;;7.97;;
19800;SDS011;10060;48.274;12.214;2023-04-06T10:30:32;11.33;;;8.00;;
19800;SDS011;10060;48.274;12.214;2023-04-06T10:33:36;11.37;;;7.83;;
19800;SDS011;10060;48.274;12.214;2023-04-06T10:36:40;10.07;;;8.23;;
19800;SDS011;10060;48.274;12.214;2023-04-06T10:39:46;14.10;;;7.93;;
19800;SDS011;10060;48.274;12.214;2023-04-06T10:42:49;9.20;;;7.47;;
19800;SDS011;10060;48.274;12.214;2023-04-06T10:45:54;11.03;;;7.70;;
19800;SDS011;10060;48.274;12.214;2023-04-06T10:49:08;10.03;;;7.57;;
19800;SDS011;10060;48.274;12.214;2023-04-06T10:52:12;11.53;;;7.83;;
19800;SDS011;10060;48.274;12.214;2023-04-06T10:55:15;12.60;;;8.93;;
19800;SDS011;10060;48.274;12.214;2023-04-06T10:58:17;12.47;;;8.53;;
19800;SDS011;10060;48.274;12.214;2023-04-06T11:01:21;11.60;;;7.93;;
19800;SDS011;10060;48.274;12.214;2023-04-06T11:04:25;11.43;;;8.23;;
19800;SDS011;10060;48.274;12.214;2023-04-06T11:07:27;13.40;;;8.70;;
19800;SDS011;10060;48.274;12.214;2023-04-06T11:10:31;15.83;;;9.47;;
19800;SDS011;10060;48.274;12.214;2023-04-06T11:13:37;14.40;;;8.23;;
19800;SDS011;10060;48.274;12.214;2023-04-06T11:16:40;14.23;;;8.77;;
19800;SDS011;10060;48.274;12.214;2023-04-06T11:19:44;12.33;;;8.50;;
19800;SDS011;10060;48.274;12.214;2023-04-06T11:22:50;15.57;;;8.90;;
19800;SDS011;10060;48.274;12.214;2023-04-06T11:25:53;13.60;;;9.50;;
19800;SDS011;10060;48.274;12.214;2023-04-06T11:28:56;14.60;;;10.07;;
19800;SDS011;10060;48.274;12.214;2023-04-06T11:31:59;12.23;;;8.90;;
19800;SDS011;10060;48.274;12.214;2023-04-06T11:35:04;16.13;;;10.00;;
19800;SDS011;10060;48.274;12.214;2023-04-06T11:38:07;18.50;;;10.70;;
19800;SDS011;10060;48.274;12.214;2023-04-06T11:41:09;11.37;;;8.60;;
19800;SDS011;10060;48.274;12.214;2023-04-06T11:44:11;13.20;;;9.23;;
19800;SDS011;10060;48.274;12.214;2023-04-06T11:47:14;13.13;;;9.27;;
19800;SDS011;10060;48.274;12.214;2023-04-06T11:50:18;14.50;;;9.00;;
19800;SDS011;10060;48.274;12.214;2023-04-06T11:53:20;13.77;;;9.50;;
19800;SDS011;10060;48.274;12.214;2023-04-06T11:56:26;13.00;;;9.73;;
19800;SDS011;10060;48.274;12.214;2023-04-06T11:59:28;14.93;;;9.20;;
19800;SDS011;10060;48.274;12.214;2023-04-06T12:02:31;13.00;;;8.53;;
19800;SDS011;10060;48.274;12.214;2023-04-06T12:05:34;13.23;;;9.30;;
19800;SDS011;10060;48.274;12.214;2023-04-06T12:08:37;11.87;;;8.93;;
19800;SDS011;10060;48.274;12.214;2023-04-06T12:11:39;13.20;;;9.37;;
19800;SDS011;10060;48.274;12.214;2023-04-06T12:14:41;12.23;;;9.03;;
19800;SDS011;10060;48.274;12.214;2023-04-06T12:17:44;10.00;;;8.30;;
19800;SDS011;10060;48.274;12.214;2023-04-06T12:20:47;11.63;;;9.10;;
19800;SDS011;10060;48.274;12.214;2023-04-06T12:23:50;11.83;;;9.07;;
19800;SDS011;10060;48.274;12.214;2023-04-06T12:26:52;13.93;;;9.17;;
19800;SDS011;10060;48.274;12.214;2023-04-06T12:29:55;15.07;;;9.27;;
19800;SDS011;10060;48.274;12.214;2023-04-06T12:32:57;12.97;;;9.50;;
19800;SDS011;10060;48.274;12.214;2023-04-06T12:36:01;12.93;;;8.50;;
19800;SDS011;10060;48.274;12.214;2023-04-06T12:39:03;12.13;;;8.93;;
19800;SDS011;10060;48.274;12.214;2023-04-06T12:42:05;12.30;;;8.77;;
19800;SDS011;10060;48.274;12.214;2023-04-06T12:45:08;11.77;;;9.10;;
19800;SDS011;10060;48.274;12.214;2023-04-06T12:48:10;14.40;;;9.80;;
19800;SDS011;10060;48.274;12.214;2023-04-06T12:51:14;13.27;;;9.57;;
19800;SDS011;10060;48.274;12.214;2023-04-06T12:54:17;13.50;;;9.40;;
19800;SDS011;10060;48.274;12.214;2023-04-06T12:57:19;15.07;;;9.57;;
19800;SDS011;10060;48.274;12.214;2023-04-06T13:00:22;12.10;;;9.43;;
19800;SDS011;10060;48.274;12.214;2023-04-06T13:03:24;11.40;;;8.30;;
19800;SDS011;10060;48.274;12.214;2023-04-06T13:06:28;14.33;;;9.37;;
19800;SDS011;10060;48.274;12.214;2023-04-06T13:09:30;12.33;;;9.57;;
19800;SDS011;10060;48.274;12.214;2023-04-06T13:12:32;13.20;;;9.80;;
19800;SDS011;10060;48.274;12.214;2023-04-06T13:15:35;14.37;;;10.10;;
19800;SDS011;10060;48.274;12.214;2023-04-06T13:18:37;11.93;;;8.87;;
19800;SDS011;10060;48.274;12.214;2023-04-06T13:21:40;11.00;;;8.73;;
19800;SDS011;10060;48.274;12.214;2023-04-06T13:24:43;12.60;;;9.33;;
19800;SDS011;10060;48.274;12.214;2023-04-06T13:27:45;12.30;;;8.80;;
19800;SDS011;10060;48.274;12.214;2023-04-06T13:30:48;13.33;;;9.67;;
19800;SDS011;10060;48.274;12.214;2023-04-06T13:33:50;12.27;;;9.13;;
19800;SDS011;10060;48.274;12.214;2023-04-06T13:36:54;13.07;;;9.17;;
19800;SDS011;10060;48.274;12.214;2023-04-06T13:39:56;15.97;;;9.90;;
19800;SDS011;10060;48.274;12.214;2023-04-06T13:42:58;13.23;;;9.47;;
19800;SDS011;10060;48.274;12.214;2023-04-06T13:46:01;13.73;;;9.13;;
19800;SDS011;10060;48.274;12.214;2023-04-06T13:49:03;11.37;;;8.87;;
19800;SDS011;10060;48.274;12.214;2023-04-06T13:52:06;13.90;;;9.70;;
19800;SDS011;10060;48.274;12.214;2023-04-06T13:55:10;13.73;;;9.40;;
19800;SDS011;10060;48.274;12.214;2023-04-06T13:58:12;13.63;;;9.47;;
19800;SDS011;10060;48.274;12.214;2023-04-06T14:01:14;14.87;;;10.10;;
19800;SDS011;10060;48.274;12.214;2023-04-06T14:04:16;15.03;;;10.10;;
19800;SDS011;10060;48.274;12.214;2023-04-06T14:07:20;13.47;;;9.20;;
19800;SDS011;10060;48.274;12.214;2023-04-06T14:10:22;11.83;;;9.03;;
19800;SDS011;10060;48.274;12.214;2023-04-06T14:13:28;13.03;;;9.33;;
19800;SDS011;10060;48.274;12.214;2023-04-06T14:16:31;12.80;;;8.57;;
19800;SDS011;10060;48.274;12.214;2023-04-06T14:19:33;11.77;;;8.93;;
19800;SDS011;10060;48.274;12.214;2023-04-06T14:22:37;13.03;;;9.10;;
19800;SDS011;10060;48.274;12.214;2023-04-06T14:25:40;12.07;;;9.43;;
19800;SDS011;10060;48.274;12.214;2023-04-06T14:28:42;13.57;;;9.37;;
19800;SDS011;10060;48.274;12.214;2023-04-06T14:31:44;13.03;;;9.63;;
19800;SDS011;10060;48.274;12.214;2023-04-06T14:34:47;14.67;;;10.30;;
19800;SDS011;10060;48.274;12.214;2023-04-06T14:37:50;13.53;;;9.43;;
19800;SDS011;10060;48.274;12.214;2023-04-06T14:40:52;13.20;;;9.70;;
19800;SDS011;10060;48.274;12.214;2023-04-06T14:43:55;15.33;;;10.80;;
19800;SDS011;10060;48.274;12.214;2023-04-06T14:46:58;34.93;;;16.90;;
19800;SDS011;10060;48.274;12.214;2023-04-06T14:50:01;14.97;;;9.60;;
19800;SDS011;10060;48.274;12.214;2023-04-06T14:53:04;14.70;;;10.67;;
19800;SDS011;10060;48.274;12.214;2023-04-06T14:56:06;20.17;;;10.60;;
19800;SDS011;10060;48.274;12.214;2023-04-06T14:59:09;20.37;;;11.23;;
19800;SDS011;10060;48.274;12.214;2023-04-06T15:02:11;13.93;;;10.77;;
19800;SDS011;10060;48.274;12.214;2023-04-06T15:05:13;12.67;;;9.53;;
19800;SDS011;10060;48.274;12.214;2023-04-06T15:08:16;17.93;;;11.77;;
19800;SDS011;10060;48.274;12.214;2023-04-06T15:11:20;12.73;;;9.67;;
19800;SDS011;10060;48.274;12.214;2023-04-06T15:14:23;15.70;;;10.47;;
19800;SDS011;10060;48.274;12.214;2023-04-06T15:17:25;16.70;;;11.97;;
19800;SDS011;10060;48.274;12.214;2023-04-06T15:20:27;13.10;;;9.83;;
19800;SDS011;10060;48.274;12.214;2023-04-06T15:23:31;17.70;;;9.30;;
19800;SDS011;10060;48.274;12.214;2023-04-06T15:26:35;13.87;;;9.73;;
19800;SDS011;10060;48.274;12.214;2023-04-06T15:29:37;15.03;;;10.53;;
19800;SDS011;10060;48.274;12.214;2023-04-06T15:32:39;14.03;;;10.30;;
19800;SDS011;10060;48.274;12.214;2023-04-06T15:35:42;16.03;;;9.47;;
19800;SDS011;10060;48.274;12.214;2023-04-06T15:38:46;15.10;;;10.03;;
19800;SDS011;10060;48.274;12.214;2023-04-06T15:41:48;16.23;;;10.40;;
19800;SDS011;10060;48.274;12.214;2023-04-06T15:44:50;13.80;;;9.57;;
19800;SDS011;10060;48.274;12.214;2023-04-06T15:47:52;14.03;;;9.63;;
19800;SDS011;10060;48.274;12.214;2023-04-06T15:50:56;13.53;;;10.27;;
19800;SDS011;10060;48.274;12.214;2023-04-06T15:53:59;17.20;;;11.00;;
19800;SDS011;10060;48.274;12.214;2023-04-06T15:57:02;13.00;;;9.70;;
19800;SDS011;10060;48.274;12.214;2023-04-06T16:00:04;14.37;;;9.73;;
19800;SDS011;10060;48.274;12.214;2023-04-06T16:03:07;12.77;;;9.83;;
19800;SDS011;10060;48.274;12.214;2023-04-06T16:06:10;13.17;;;9.17;;
19800;SDS011;10060;48.274;12.214;2023-04-06T16:09:13;11.63;;;9.43;;
19800;SDS011;10060;48.274;12.214;2023-04-06T16:12:15;16.40;;;10.33;;
19800;SDS011;10060;48.274;12.214;2023-04-06T16:15:18;15.53;;;11.13;;
19800;SDS011;10060;48.274;12.214;2023-04-06T16:18:20;15.70;;;10.87;;
19800;SDS011;10060;48.274;12.214;2023-04-06T16:21:22;15.67;;;10.13;;
19800;SDS011;10060;48.274;12.214;2023-04-06T16:24:28;14.00;;;10.43;;
19800;SDS011;10060;48.274;12.214;2023-04-06T16:27:30;13.80;;;9.33;;
19800;SDS011;10060;48.274;12.214;2023-04-06T16:30:35;14.00;;;9.87;;
19800;SDS011;10060;48.274;12.214;2023-04-06T16:33:37;14.87;;;9.17;;
19800;SDS011;10060;48.274;12.214;2023-04-06T16:36:41;16.07;;;9.63;;
19800;SDS011;10060;48.274;12.214;2023-04-06T16:39:45;13.40;;;9.90;;
19800;SDS011;10060;48.274;12.214;2023-04-06T16:42:47;13.03;;;9.37;;
19800;SDS011;10060;48.274;12.214;2023-04-06T16:45:50;13.40;;;9.60;;
19800;SDS011;10060;48.274;12.214;2023-04-06T16:48:52;13.60;;;9.90;;
19800;SDS011;10060;48.274;12.214;2023-04-06T16:51:55;11.57;;;8.93;;
19800;SDS011;10060;48.274;12.214;2023-04-06T16:55:02;12.40;;;9.33;;
19800;SDS011;10060;48.274;12.214;2023-04-06T16:58:04;14.27;;;9.97;;
19800;SDS011;10060;48.274;12.214;2023-04-06T17:01:07;13.07;;;9.17;;
19800;SDS011;10060;48.274;12.214;2023-04-06T17:04:09;12.87;;;9.63;;
19800;SDS011;10060;48.274;12.214;2023-04-06T17:07:11;14.93;;;9.20;;
19800;SDS011;10060;48.274;12.214;2023-04-06T17:10:15;13.23;;;9.40;;
19800;SDS011;10060;48.274;12.214;2023-04-06T17:13:17;14.37;;;9.50;;
19800;SDS011;10060;48.274;12.214;2023-04-06T17:16:19;14.13;;;9.20;;
19800;SDS011;10060;48.274;12.214;2023-04-06T17:19:22;14.50;;;9.13;;
19800;SDS011;10060;48.274;12.214;2023-04-06T17:22:25;12.07;;;9.23;;
19800;SDS011;10060;48.274;12.214;2023-04-06T17:25:29;15.53;;;9.87;;
19800;SDS011;10060;48.274;12.214;2023-04-06T17:28:31;14.67;;;9.83;;
19800;SDS011;10060;48.274;12.214;2023-04-06T17:31:33;11.90;;;9.33;;
19800;SDS011;10060;48.274;12.214;2023-04-06T17:34:35;13.60;;;8.93;;
19800;SDS011;10060;48.274;12.214;2023-04-06T17:37:38;19.10;;;9.50;;
19800;SDS011;10060;48.274;12.214;2023-04-06T17:40:44;15.67;;;9.30;;
19800;SDS011;10060;48.274;12.214;2023-04-06T17:43:46;14.43;;;9.43;;